Terminal Aerodrome Forecast
Issued by NWS

Home | Current Version | Previous Version | Text Only | Print | Product List | Glossary On
Versions: 1 2 3 4 5 6 7 8 9 10 11 12 13 14 15
000
FTUS45 KTWC 252340
TAFOLS
TAF
KOLS 252340Z 2600/2624 30007KT P6SM SCT070 BKN120
     FM260300 20006KT P6SM FEW070 SCT110
     FM260700 VRB03KT P6SM FEW110 SCT180
     FM262000 30010KT P6SM SCT070=

USA.gov is the U.S. government's official web portal to all federal, state and local government web resources and services.